Time;durP1;ratioP1;P1;durP2;ratioP2;P2;SDS_P1;SDS_P2;PMS_P1;PMS_P2;Temp;Humidity;BMP_temperature;BMP_pressure;BME280_temperature;BME280_humidity;BME280_pressure;Samples;Min_cycle;Max_cycle;Signal;HPM_P1;HPM_P2
2023/08/29 00:04:37;;;;;;;3.87;2.60;;;;;;;17.57;49.24;99184.72;10421961;28;20244;-38
2023/08/29 00:09:39;;;;;;;3.10;2.80;;;;;;;17.39;49.39;99218.19;10413917;28;20242;-38
2023/08/29 00:14:41;;;;;;;4.37;2.90;;;;;;;17.39;49.23;99205.50;10417561;28;20232;-39
2023/08/29 00:19:44;;;;;;;2.73;2.37;;;;;;;17.03;50.18;99231.06;10415185;28;20405;-38
2023/08/29 00:24:47;;;;;;;3.40;3.10;;;;;;;17.31;49.77;99195.91;10420821;28;20350;-38
2023/08/29 00:29:49;;;;;;;2.80;2.60;;;;;;;16.51;51.45;99302.09;10412266;28;20787;-38
2023/08/29 00:34:51;;;;;;;2.70;2.50;;;;;;;17.11;50.92;99177.44;10416916;28;20301;-38
2023/08/29 00:39:53;;;;;;;2.57;2.37;;;;;;;17.42;50.32;99182.56;10417637;28;20430;-38
2023/08/29 00:44:55;;;;;;;3.03;2.30;;;;;;;18.11;48.79;99149.81;10422148;28;20235;-37
2023/08/29 00:49:56;;;;;;;2.90;2.70;;;;;;;17.31;49.62;99289.75;10409536;28;20236;-38
2023/08/29 00:54:59;;;;;;;2.70;2.50;;;;;;;17.77;49.32;99205.91;10417018;28;20785;-38
2023/08/29 01:00:01;;;;;;;2.60;2.40;;;;;;;17.11;51.20;99196.38;10417573;28;20239;-36
2023/08/29 01:05:04;;;;;;;2.80;2.60;;;;;;;17.46;49.45;99240.50;10413025;28;20789;-37
2023/08/29 01:10:06;;;;;;;2.60;2.40;;;;;;;17.02;50.78;99254.56;10408393;28;20327;-37
2023/08/29 01:15:16;;;;;;;3.03;2.80;;;;;;;17.42;49.62;99275.31;10418508;28;20223;-38
2023/08/29 01:20:18;;;;;;;2.60;2.40;;;;;;;17.51;49.76;99243.28;10411403;28;20286;-38
2023/08/29 01:25:31;;;;;;;2.57;2.37;;;;;;;17.07;50.86;99278.97;10415886;28;20248;-37
2023/08/29 01:30:33;;;;;;;4.87;2.70;;;;;;;17.51;50.13;99230.59;10414314;28;20224;-37
2023/08/29 01:35:35;;;;;;;4.27;2.60;;;;;;;17.77;49.72;99222.13;10414299;28;21039;-37
2023/08/29 01:40:37;;;;;;;2.80;2.60;;;;;;;17.22;50.32;99275.75;10406899;28;20684;-38
2023/08/29 01:45:39;;;;;;;2.90;2.63;;;;;;;17.60;49.96;99217.50;10411905;28;21631;-37
2023/08/29 01:50:42;;;;;;;3.10;2.80;;;;;;;16.79;51.83;99261.66;10412681;28;20239;-38
2023/08/29 01:55:46;;;;;;;3.00;2.80;;;;;;;16.43;52.78;99278.94;10413342;28;20340;-38
2023/08/29 02:00:48;;;;;;;3.07;2.70;;;;;;;16.19;52.26;99335.59;10419692;28;20310;-37
2023/08/29 02:05:50;;;;;;;3.60;2.93;;;;;;;16.90;51.07;99238.34;10412589;28;20363;-38
2023/08/29 02:10:53;;;;;;;3.83;3.20;;;;;;;16.96;51.05;99213.09;10418173;28;20210;-38
2023/08/29 02:15:54;;;;;;;2.70;2.50;;;;;;;17.01;50.86;99219.69;10412644;28;20282;-37
2023/08/29 02:20:56;;;;;;;3.27;2.77;;;;;;;17.11;50.67;99225.28;10414630;28;20626;-39
2023/08/29 02:26:05;;;;;;;3.00;2.73;;;;;;;16.90;51.17;99221.31;10408705;28;21002;-38
2023/08/29 02:31:09;;;;;;;2.57;2.37;;;;;;;17.50;50.12;99155.13;10409627;28;20217;-38
2023/08/29 02:36:12;;;;;;;3.47;3.20;;;;;;;16.42;52.00;99242.22;10408892;28;20236;-38
2023/08/29 02:41:14;;;;;;;3.30;3.00;;;;;;;17.23;50.41;99181.97;10411351;28;20396;-38
2023/08/29 02:46:16;;;;;;;3.60;3.20;;;;;;;16.15;52.42;99261.56;10403035;28;20782;-38
2023/08/29 02:51:18;;;;;;;3.30;3.00;;;;;;;16.57;52.14;99156.13;10413254;28;20232;-37
2023/08/29 02:56:19;;;;;;;3.40;2.93;;;;;;;16.89;51.05;99182.69;10409944;28;20310;-38
2023/08/29 03:01:21;;;;;;;3.80;2.90;;;;;;;16.25;52.13;99245.59;10411470;28;20330;-38
2023/08/29 03:06:23;;;;;;;3.10;2.83;;;;;;;16.93;51.07;99186.53;10399178;28;20240;-39
2023/08/29 03:11:25;;;;;;;2.90;2.67;;;;;;;17.15;51.09;99140.72;10410502;28;20263;-37
2023/08/29 03:16:26;;;;;;;3.07;2.60;;;;;;;17.22;50.50;99178.44;10397243;22;20378;-37
2023/08/29 03:21:28;;;;;;;2.87;2.60;;;;;;;17.12;50.67;99222.34;10293008;28;20694;-34
2023/08/29 03:26:30;;;;;;;3.40;3.10;;;;;;;16.86;50.70;99261.50;10285744;28;20397;-37
2023/08/29 03:31:32;;;;;;;2.60;2.40;;;;;;;16.67;51.66;99238.41;10297733;28;20229;-35
2023/08/29 03:36:34;;;;;;;3.27;2.97;;;;;;;16.06;53.29;99220.63;10290266;28;20229;-34
2023/08/29 03:41:36;;;;;;;3.10;2.80;;;;;;;16.19;52.59;99164.75;10296310;28;20230;-33
2023/08/29 03:46:38;;;;;;;2.67;2.47;;;;;;;17.02;51.15;99129.41;10293872;28;20332;-36
2023/08/29 03:51:42;;;;;;;3.30;3.00;;;;;;;16.53;51.80;99198.16;10294842;28;20280;-37
2023/08/29 03:56:44;;;;;;;3.90;2.63;;;;;;;16.85;51.41;99181.50;10299500;28;20234;-36
2023/08/29 04:01:45;;;;;;;2.57;2.37;;;;;;;16.67;51.56;99196.03;10298464;28;20311;-37
2023/08/29 04:06:47;;;;;;;3.17;2.90;;;;;;;17.32;50.54;99119.13;10292944;28;20702;-36
2023/08/29 04:11:49;;;;;;;3.23;2.90;;;;;;;16.52;52.23;99182.22;10301718;28;20649;-36
2023/08/29 04:16:51;;;;;;;3.13;2.90;;;;;;;16.87;51.22;99197.47;10298204;28;20344;-36
2023/08/29 04:21:52;;;;;;;3.00;2.57;;;;;;;16.77;51.15;99212.44;10307095;28;20216;-36
2023/08/29 04:26:54;;;;;;;3.03;2.80;;;;;;;16.44;51.82;99245.50;10302451;28;20234;-35
2023/08/29 04:31:56;;;;;;;4.20;3.00;;;;;;;16.85;50.87;99203.13;10305222;28;20237;-36
2023/08/29 04:36:57;;;;;;;4.17;3.20;;;;;;;17.20;50.55;99158.13;10304064;28;20732;-36
2023/08/29 04:41:59;;;;;;;3.30;2.90;;;;;;;15.40;53.03;99311.41;10304811;28;20389;-35
2023/08/29 04:47:03;;;;;;;3.23;2.93;;;;;;;16.27;51.38;99217.59;10299410;28;20336;-36
2023/08/29 04:52:05;;;;;;;3.00;2.70;;;;;;;16.50;51.21;99179.75;10300771;28;20210;-36
2023/08/29 04:57:07;;;;;;;5.27;2.97;;;;;;;16.78;51.03;99130.31;10302591;28;20230;-36
2023/08/29 05:02:09;;;;;;;3.40;3.10;;;;;;;16.02;51.97;99241.00;10305805;28;20240;-35
2023/08/29 05:07:11;;;;;;;3.77;3.03;;;;;;;15.83;52.15;99252.97;10303368;28;20238;-35
2023/08/29 05:12:13;;;;;;;4.03;3.70;;;;;;;16.66;51.16;99186.28;10302647;28;20218;-36
2023/08/29 05:17:15;;;;;;;6.57;3.83;;;;;;;17.10;50.42;99181.19;10306512;28;20292;-36
2023/08/29 05:22:16;;;;;;;3.40;3.10;;;;;;;16.93;50.72;99204.63;10296159;28;20238;-36
2023/08/29 05:27:18;;;;;;;4.40;3.30;;;;;;;16.77;51.04;99225.13;10299691;28;20273;-36
2023/08/29 05:32:20;;;;;;;3.37;3.07;;;;;;;17.30;49.82;99174.53;10303683;28;20324;-35
2023/08/29 05:37:23;;;;;;;4.67;3.40;;;;;;;17.65;49.36;99168.91;10301627;28;20265;-37
2023/08/29 05:42:26;;;;;;;3.87;3.57;;;;;;;17.57;49.38;99207.16;10303404;28;20245;-37
2023/08/29 05:47:28;;;;;;;3.73;3.40;;;;;;;16.21;52.25;99273.28;10299851;28;20272;-36
2023/08/29 05:52:30;;;;;;;3.77;3.47;;;;;;;16.88;51.17;99197.25;10299979;28;20691;-36
2023/08/29 05:57:31;;;;;;;3.63;3.27;;;;;;;17.11;50.88;99171.22;10298769;28;20253;-36
2023/08/29 06:02:34;;;;;;;3.33;3.03;;;;;;;17.48;50.01;99185.09;10301260;28;20234;-36
2023/08/29 06:07:38;;;;;;;3.43;3.13;;;;;;;17.39;49.96;99210.09;10298064;28;20289;-37
2023/08/29 06:12:41;;;;;;;3.67;3.37;;;;;;;15.90;52.89;99301.44;10298422;28;20723;-36
2023/08/29 06:17:42;;;;;;;3.93;3.53;;;;;;;17.62;49.75;99146.91;10297936;28;20806;-36
2023/08/29 06:22:44;;;;;;;3.67;3.37;;;;;;;15.88;52.52;99342.94;10298826;28;20806;-37
2023/08/29 06:27:46;;;;;;;3.50;3.20;;;;;;;16.91;51.41;99237.28;10299965;28;20312;-36
2023/08/29 06:32:48;;;;;;;5.53;3.70;;;;;;;15.74;52.95;99317.22;10300986;28;20253;-36
2023/08/29 06:37:50;;;;;;;5.60;3.20;;;;;;;16.64;51.97;99255.94;10298033;28;20237;-35
2023/08/29 06:42:52;;;;;;;5.80;3.40;;;;;;;16.41;52.50;99232.47;10301287;28;20248;-36
2023/08/29 06:47:53;;;;;;;3.90;3.50;;;;;;;16.77;51.28;99235.94;10296243;28;20320;-36
2023/08/29 06:52:55;;;;;;;3.67;3.30;;;;;;;16.81;51.54;99237.91;10298619;28;20225;-36
2023/08/29 06:57:57;;;;;;;4.57;3.67;;;;;;;15.38;54.26;99343.19;10293864;28;20289;-36
2023/08/29 07:02:59;;;;;;;3.97;3.57;;;;;;;15.75;53.47;99308.06;10297455;28;20321;-37
2023/08/29 07:08:03;;;;;;;4.70;4.30;;;;;;;16.07;53.37;99272.69;10294725;28;20237;-36
2023/08/29 07:13:06;;;;;;;4.43;4.03;;;;;;;15.72;54.23;99283.44;10301296;28;20765;-36
2023/08/29 07:18:07;;;;;;;5.87;3.67;;;;;;;14.96;56.32;99310.72;10295471;28;20862;-36
2023/08/29 07:23:10;;;;;;;4.47;4.07;;;;;;;15.97;53.89;99243.59;10293271;28;20233;-36
2023/08/29 07:28:15;;;;;;;5.70;3.80;;;;;;;15.89;54.53;99219.66;10296080;28;20273;-37
2023/08/29 07:33:20;;;;;;;4.53;4.13;;;;;;;16.79;52.70;99179.78;10296999;28;20786;-36
2023/08/29 07:38:23;;;;;;;6.87;3.70;;;;;;;17.53;51.12;99204.13;10291692;28;20635;-36
2023/08/29 07:43:25;;;;;;;4.57;4.17;;;;;;;17.26;52.09;99170.66;10295150;28;20270;-37
2023/08/29 07:48:26;;;;;;;4.53;4.00;;;;;;;16.14;53.79;99340.88;10305957;28;20326;-37
2023/08/29 07:53:28;;;;;;;5.80;4.23;;;;;;;17.31;51.84;99212.13;10304734;28;20226;-37
2023/08/29 07:58:30;;;;;;;5.77;4.00;;;;;;;17.59;51.64;99191.50;10303433;28;20307;-37
2023/08/29 08:03:31;;;;;;;4.40;4.00;;;;;;;17.19;52.89;99270.84;10304698;28;20331;-36
2023/08/29 08:08:33;;;;;;;5.30;4.50;;;;;;;17.21;52.62;99273.28;10304253;28;20671;-36
2023/08/29 08:13:35;;;;;;;4.53;4.00;;;;;;;16.41;54.08;99341.28;10305171;28;20233;-36
2023/08/29 08:18:37;;;;;;;11.37;4.50;;;;;;;16.45;54.31;99295.75;10303929;28;20252;-35
2023/08/29 08:23:39;;;;;;;5.00;4.50;;;;;;;17.78;51.26;99297.66;10306757;28;20373;-36
2023/08/29 08:28:40;;;;;;;6.73;4.27;;;;;;;18.25;50.79;99237.75;10299909;28;20269;-36
2023/08/29 08:33:43;;;;;;;5.73;4.00;;;;;;;17.86;51.71;99299.13;10304028;28;20312;-36
2023/08/29 08:38:45;;;;;;;5.70;4.37;;;;;;;17.55;51.51;99353.47;10299491;28;20731;-36
2023/08/29 08:43:48;;;;;;;4.53;3.87;;;;;;;17.77;51.93;99281.66;10307705;28;20234;-36
2023/08/29 08:48:50;;;;;;;4.37;3.97;;;;;;;17.65;51.46;99350.19;10297311;28;20601;-36
2023/08/29 08:53:53;;;;;;;4.27;3.87;;;;;;;17.57;51.94;99307.25;10302233;28;20631;-36
2023/08/29 08:58:55;;;;;;;4.63;4.13;;;;;;;18.07;51.12;99293.00;10300025;28;20242;-36
2023/08/29 09:03:57;;;;;;;5.23;3.80;;;;;;;17.50;50.07;99401.25;10296115;28;20226;-36
2023/08/29 09:09:34;;;;;;;5.87;4.00;;;;;;;18.08;50.43;99324.41;10300380;28;20542;-36
2023/08/29 09:14:41;;;;;;;4.47;4.07;;;;;;;19.28;48.54;99268.91;10258550;28;20305;-35
2023/08/29 09:19:45;;;;;;;5.93;3.80;;;;;;;19.08;49.14;99265.94;10348854;22;20751;-76
2023/08/29 09:24:49;;;;;;;5.47;3.83;;;;;;;18.74;49.59;99314.84;10333571;28;20245;-76
2023/08/29 09:29:50;;;;;;;4.47;3.53;;;;;;;18.71;49.93;99297.22;10309322;28;20245;-77
2023/08/29 09:34:57;;;;;;;5.43;4.40;;;;;;;18.30;48.23;99388.69;10308377;28;20503;-76
2023/08/29 09:40:01;;;;;;;4.43;3.70;;;;;;;19.67;47.06;99305.94;10311181;28;20245;-76
2023/08/29 09:45:07;;;;;;;3.70;3.30;;;;;;;19.76;46.63;99285.41;10310142;28;20610;-77
2023/08/29 09:50:08;;;;;;;4.00;3.60;;;;;;;19.61;46.56;99264.38;10309700;28;20577;-77
2023/08/29 09:55:13;;;;;;;4.30;3.70;;;;;;;20.00;46.71;99282.34;10311896;28;20229;-77
2023/08/29 10:00:15;;;;;;;4.13;3.47;;;;;;;20.16;46.12;99245.25;10306751;28;20236;-77
2023/08/29 10:05:22;;;;;;;4.30;3.90;;;;;;;18.06;47.72;99309.47;10306817;28;20240;-77
2023/08/29 10:10:24;;;;;;;3.43;3.13;;;;;;;20.75;44.23;99230.63;10309205;28;20750;-77
2023/08/29 10:15:27;;;;;;;5.53;3.67;;;;;;;20.00;44.22;99342.88;10311235;28;20301;-77
2023/08/29 10:20:32;;;;;;;4.05;3.67;;;;;;;19.55;45.28;99350.34;10303906;28;20388;-76
2023/08/29 10:25:35;;;;;;;5.22;3.70;;;;;;;17.44;48.11;99365.16;10323533;28;20268;-77
2023/08/29 10:30:42;;;;;;;4.53;3.23;;;;;;;19.43;45.89;99324.38;10305720;28;20246;-77
2023/08/29 10:35:47;;;;;;;4.60;3.55;;;;;;;19.41;45.75;99305.66;10311283;28;20230;-77
2023/08/29 10:41:02;;;;;;;3.40;3.13;;;;;;;19.55;45.22;99316.91;10305386;28;20253;-77
2023/08/29 10:46:09;;;;;;;4.03;3.63;;;;;;;18.57;48.39;99360.94;10304081;28;20238;-76
2023/08/29 10:51:22;;;;;;;4.90;3.65;;;;;;;19.55;47.01;99270.78;10306194;28;20248;-77
2023/08/29 10:56:38;;;;;;;4.85;3.97;;;;;;;19.49;47.25;99250.94;10304622;28;20238;-76
2023/08/29 11:06:21;;;;;;;6.00;3.97;;;;;;;17.44;52.43;99256.16;10427966;28;20786;-76
2023/08/29 11:11:23;;;;;;;5.15;3.75;;;;;;;17.44;52.42;99258.84;10414365;28;20692;-76
2023/08/29 11:16:27;;;;;;;6.28;4.10;;;;;;;17.22;52.77;99243.31;10408227;28;20242;-76
2023/08/29 11:21:31;;;;;;;4.70;4.20;;;;;;;18.19;51.30;99178.38;10406910;28;20680;-76
2023/08/29 11:26:36;;;;;;;6.78;3.80;;;;;;;18.61;50.53;99161.59;10409936;28;20236;-77
2023/08/29 11:31:39;;;;;;;4.15;3.60;;;;;;;18.26;51.45;99173.59;10404829;28;20382;-77
2023/08/29 11:36:44;;;;;;;5.13;4.43;;;;;;;18.57;50.17;99176.69;10371230;28;20230;-76
2023/08/29 11:41:47;;;;;;;4.30;3.90;;;;;;;19.38;48.94;99165.09;10362682;28;20593;-75
2023/08/29 11:47:14;;;;;;;6.10;3.53;;;;;;;17.41;51.40;99262.03;10374048;28;20237;-77
2023/08/29 11:52:17;;;;;;;4.38;3.38;;;;;;;18.17;50.81;99204.84;10370071;28;20232;-76
2023/08/29 11:57:18;;;;;;;4.40;4.00;;;;;;;18.25;50.46;99190.88;10379775;28;20318;-76
2023/08/29 12:02:23;;;;;;;5.25;3.80;;;;;;;19.33;48.78;99197.59;10369498;28;20254;-77
2023/08/29 12:07:31;;;;;;;4.75;3.60;;;;;;;19.06;49.38;99214.69;10377479;28;20330;-77
2023/08/29 12:12:35;;;;;;;4.60;3.80;;;;;;;20.23;46.40;99192.38;10374384;28;20235;-76
2023/08/29 12:17:40;;;;;;;3.55;3.25;;;;;;;18.98;48.92;99301.91;10345782;28;20242;-77
2023/08/29 12:22:52;;;;;;;3.75;3.20;;;;;;;20.04;47.77;99163.97;10351328;28;20249;-77
2023/08/29 12:27:53;;;;;;;3.60;3.30;;;;;;;19.03;47.89;99277.56;10344082;28;20767;-76
2023/08/29 12:32:55;;;;;;;3.55;3.25;;;;;;;19.43;47.81;99219.38;10342227;28;20241;-76
2023/08/29 12:37:57;;;;;;;3.85;3.55;;;;;;;18.51;49.94;99292.31;10343250;28;20229;-75
2023/08/29 12:42:58;;;;;;;4.13;3.63;;;;;;;18.67;50.44;99282.50;10346127;28;20731;-76
2023/08/29 12:48:00;;;;;;;6.25;4.68;;;;;;;18.39;51.36;99264.50;10343844;28;20574;-76
2023/08/29 12:53:02;;;;;;;8.43;4.68;;;;;;;18.66;51.64;99169.78;10337827;28;20266;-77
2023/08/29 12:58:05;;;;;;;5.10;4.60;;;;;;;19.22;50.83;99149.78;10346182;28;20302;-77
2023/08/29 13:03:08;;;;;;;4.43;4.03;;;;;;;18.73;51.70;99226.50;10340800;28;20619;-77
2023/08/29 13:08:10;;;;;;;4.90;4.20;;;;;;;19.45;50.50;99168.44;10341007;28;20315;-77
2023/08/29 13:13:11;;;;;;;5.45;3.88;;;;;;;19.56;50.54;99155.78;10346972;28;20492;-76
2023/08/29 13:18:13;;;;;;;4.47;4.07;;;;;;;19.16;50.13;99217.50;10344359;28;20238;-76
2023/08/29 13:23:15;;;;;;;6.82;4.10;;;;;;;18.36;51.62;99265.81;10338621;28;20728;-77
2023/08/29 13:28:16;;;;;;;5.57;3.85;;;;;;;18.83;50.85;99180.53;10341392;28;20399;-76
2023/08/29 13:33:18;;;;;;;4.97;4.47;;;;;;;18.97;51.33;99180.97;10340157;28;20225;-76
2023/08/29 13:38:20;;;;;;;4.10;3.70;;;;;;;18.81;50.00;99216.03;10344696;28;20386;-77
2023/08/29 13:43:21;;;;;;;2.10;1.90;;;;;;;18.60;47.48;99216.84;10355490;28;20238;-78
2023/08/29 13:48:23;;;;;;;2.40;2.13;;;;;;;19.65;45.58;99191.38;10376654;28;20231;-76
2023/08/29 13:53:25;;;;;;;2.72;2.40;;;;;;;17.39;51.59;99307.44;10383341;28;20316;-77
2023/08/29 13:58:27;;;;;;;2.55;2.35;;;;;;;17.27;51.46;99291.25;10380405;28;20324;-76
2023/08/29 14:03:29;;;;;;;2.22;2.10;;;;;;;18.08;49.75;99228.81;10380772;28;20865;-74
2023/08/29 14:08:39;;;;;;;2.15;1.95;;;;;;;18.29;49.39;99154.16;10374960;28;20750;-79
2023/08/29 14:13:41;;;;;;;5.10;2.50;;;;;;;18.56;49.64;99196.75;10383438;28;20332;-78
2023/08/29 14:18:44;;;;;;;4.03;3.30;;;;;;;17.21;50.21;99306.56;10378680;28;20315;-78
2023/08/29 14:23:45;;;;;;;4.47;3.55;;;;;;;17.62;50.19;99277.59;10378056;28;20719;-82
2023/08/29 14:28:47;;;;;;;2.63;2.42;;;;;;;19.01;48.88;99149.56;10379998;28;20743;-77
2023/08/29 14:33:50;;;;;;;2.47;2.28;;;;;;;19.33;48.37;99146.06;10382323;28;20748;-78
2023/08/29 14:38:52;;;;;;;2.28;2.10;;;;;;;17.25;51.69;99258.25;10380739;28;20826;-78
2023/08/29 14:43:55;;;;;;;2.40;2.20;;;;;;;18.18;50.63;99179.41;10383577;28;20232;-75
2023/08/29 14:48:57;;;;;;;3.38;1.75;;;;;;;17.18;50.47;99315.97;10384072;28;20232;-75
2023/08/29 14:54:03;;;;;;;1.73;1.63;;;;;;;18.15;49.03;99256.53;10379635;28;20312;-75
2023/08/29 14:59:05;;;;;;;2.72;1.90;;;;;;;18.40;49.20;99195.72;10378903;28;20630;-78
2023/08/29 15:04:08;;;;;;;2.28;1.77;;;;;;;19.13;47.81;99196.34;10380792;28;20236;-76
2023/08/29 15:09:10;;;;;;;1.80;1.70;;;;;;;18.70;48.02;99214.25;10340351;22;20244;-38
2023/08/29 15:14:12;;;;;;;1.80;1.70;;;;;;;18.58;47.55;99221.69;10306399;28;20233;-38
2023/08/29 15:19:14;;;;;;;2.08;1.80;;;;;;;19.01;47.60;99182.94;10317687;23;20212;-75
2023/08/29 15:24:16;;;;;;;2.20;2.00;;;;;;;19.14;47.45;99235.94;10347513;28;20708;-76
2023/08/29 15:29:18;;;;;;;2.17;1.98;;;;;;;19.56;45.92;99267.84;10318640;28;20380;-76
2023/08/29 15:34:20;;;;;;;2.55;1.98;;;;;;;19.23;46.85;99240.91;10309567;28;20808;-76
2023/08/29 15:39:21;;;;;;;1.73;1.58;;;;;;;19.31;46.50;99251.28;10337416;28;20296;-76
2023/08/29 15:44:23;;;;;;;1.98;1.85;;;;;;;19.39;46.69;99193.88;10363955;28;20234;-76
2023/08/29 15:49:25;;;;;;;2.10;1.90;;;;;;;19.47;46.18;99217.81;10353173;28;20367;-76
2023/08/29 15:54:26;;;;;;;2.55;1.92;;;;;;;19.63;45.70;99237.78;10352878;28;20621;-76
2023/08/29 15:59:28;;;;;;;2.45;2.25;;;;;;;19.26;46.94;99271.03;10353856;28;20799;-78
2023/08/29 16:04:30;;;;;;;2.25;1.75;;;;;;;19.07;48.29;99221.75;10357208;28;20242;-79
2023/08/29 16:09:32;;;;;;;5.57;3.95;;;;;;;19.91;46.50;99176.94;10347641;28;20475;-76
2023/08/29 16:14:33;;;;;;;4.25;3.33;;;;;;;18.76;48.55;99278.31;10351731;28;20241;-75
2023/08/29 16:19:35;;;;;;;3.47;3.17;;;;;;;19.37;48.09;99212.31;10346472;28;20328;-79
2023/08/29 16:24:37;;;;;;;18.95;11.32;;;;;;;19.34;48.07;99227.19;10355865;28;20405;-76
2023/08/29 16:29:38;;;;;;;7.00;4.82;;;;;;;18.07;50.35;99293.00;10344732;28;20237;-77
2023/08/29 16:34:40;;;;;;;4.63;3.92;;;;;;;18.51;49.86;99202.91;10355024;28;20230;-76
2023/08/29 16:39:42;;;;;;;3.20;2.72;;;;;;;18.66;49.83;99226.69;10346330;28;20682;-76
2023/08/29 16:44:44;;;;;;;2.80;2.47;;;;;;;17.30;52.72;99267.25;10349633;28;20327;-76
2023/08/29 16:49:45;;;;;;;2.77;1.93;;;;;;;18.88;50.05;99171.63;10348963;28;20712;-76
2023/08/29 16:54:47;;;;;;;2.45;2.13;;;;;;;18.46;49.37;99235.38;10347032;28;20229;-77
2023/08/29 17:00:10;;;;;;;2.38;2.17;;;;;;;17.99;50.54;99224.91;10353423;28;20298;-76
2023/08/29 17:05:12;;;;;;;2.55;2.03;;;;;;;18.71;49.85;99155.44;10351800;28;20269;-77
2023/08/29 17:10:17;;;;;;;1.92;1.80;;;;;;;18.93;49.54;99188.81;10348696;28;20230;-76
2023/08/29 17:15:19;;;;;;;1.98;1.80;;;;;;;19.89;47.88;99170.13;10351581;28;20619;-76
2023/08/29 17:20:22;;;;;;;2.30;1.70;;;;;;;19.82;47.70;99191.25;10348645;28;20248;-76
2023/08/29 17:25:24;;;;;;;3.35;2.25;;;;;;;19.23;48.83;99265.31;10347572;28;20256;-77
2023/08/29 17:30:26;;;;;;;3.88;2.38;;;;;;;19.55;47.66;99238.22;10352873;28;20626;-78
2023/08/29 17:35:27;;;;;;;1.70;1.60;;;;;;;19.32;48.10;99250.22;10346743;28;20333;-76
2023/08/29 17:40:29;;;;;;;1.92;1.83;;;;;;;19.56;47.37;99207.34;10355612;28;20267;-74
2023/08/29 17:45:31;;;;;;;3.05;1.90;;;;;;;19.79;46.89;99219.75;10347909;28;20244;-77
2023/08/29 17:50:32;;;;;;;2.65;2.45;;;;;;;19.94;47.12;99195.41;10348479;28;20236;-75
2023/08/29 17:55:35;;;;;;;2.50;2.10;;;;;;;19.47;47.65;99288.34;10346452;28;20264;-76
2023/08/29 18:00:36;;;;;;;2.20;2.00;;;;;;;18.72;49.69;99293.41;10351166;28;20256;-77
2023/08/29 18:05:48;;;;;;;2.13;1.92;;;;;;;18.40;51.63;99271.56;10355258;28;20304;-76
2023/08/29 18:10:50;;;;;;;2.50;2.30;;;;;;;18.83;50.77;99218.47;10348405;28;20315;-77
2023/08/29 18:15:52;;;;;;;3.40;2.20;;;;;;;18.09;52.47;99262.97;10362894;28;20431;-77
2023/08/29 18:20:57;;;;;;;2.90;2.00;;;;;;;19.41;49.83;99161.88;10350334;28;21033;-75
2023/08/29 18:25:59;;;;;;;2.15;1.80;;;;;;;18.26;51.93;99268.34;10357249;28;20720;-74
2023/08/29 18:31:03;;;;;;;2.10;1.83;;;;;;;18.78;50.33;99287.00;10357409;28;20232;-77
2023/08/29 18:36:04;;;;;;;2.17;1.97;;;;;;;19.05;50.37;99223.06;10347637;28;20233;-74
2023/08/29 18:41:06;;;;;;;2.40;2.20;;;;;;;18.51;51.91;99231.88;10338624;28;20231;-75
2023/08/29 18:46:08;;;;;;;3.13;2.17;;;;;;;17.93;52.87;99299.78;10359984;28;20233;-77
2023/08/29 18:51:10;;;;;;;2.27;2.07;;;;;;;18.20;52.32;99263.94;10347788;28;20214;-79
2023/08/29 18:56:14;;;;;;;3.08;2.58;;;;;;;19.00;50.46;99256.38;10342991;28;20811;-76
2023/08/29 19:01:16;;;;;;;3.63;2.30;;;;;;;19.69;48.95;99196.06;10341076;28;20238;-76
2023/08/29 19:06:20;;;;;;;2.23;1.70;;;;;;;19.13;49.53;99285.00;10348462;28;20614;-76
2023/08/29 19:11:22;;;;;;;1.87;1.73;;;;;;;19.44;48.71;99278.00;10352105;28;20235;-74
2023/08/29 19:16:25;;;;;;;2.23;2.03;;;;;;;18.09;51.27;99317.09;10359572;28;20532;-72
2023/08/29 19:21:27;;;;;;;2.77;2.20;;;;;;;18.59;50.76;99229.56;10342095;28;20575;-71
2023/08/29 19:26:29;;;;;;;2.07;1.97;;;;;;;18.37;50.86;99267.47;10350278;28;20229;-76
2023/08/29 19:31:30;;;;;;;2.77;2.10;;;;;;;18.71;50.15;99258.44;10346282;28;20328;-75
2023/08/29 19:36:33;;;;;;;2.17;2.00;;;;;;;18.86;49.68;99223.41;10303227;28;20241;-73
2023/08/29 19:41:34;;;;;;;2.53;2.20;;;;;;;18.12;50.80;99305.78;10306457;28;20751;-74
2023/08/29 19:46:37;;;;;;;2.63;2.23;;;;;;;18.57;50.18;99258.78;10309946;28;20242;-75
2023/08/29 19:51:39;;;;;;;3.17;2.83;;;;;;;18.63;51.02;99217.16;10308406;28;20244;-74
2023/08/29 19:56:41;;;;;;;2.60;2.40;;;;;;;18.24;51.76;99255.06;10332410;28;20233;-78
2023/08/29 20:01:42;;;;;;;3.67;2.50;;;;;;;17.96;52.16;99293.06;10349567;28;20252;-77
2023/08/29 20:06:44;;;;;;;2.93;2.73;;;;;;;18.22;51.61;99240.13;10354505;28;20229;-76
2023/08/29 20:11:46;;;;;;;3.27;2.83;;;;;;;17.86;52.86;99270.16;10351202;28;20321;-75
2023/08/29 20:16:47;;;;;;;3.40;3.10;;;;;;;18.36;51.96;99192.69;10343905;28;20236;-76
2023/08/29 20:21:50;;;;;;;4.40;2.70;;;;;;;17.20;54.33;99304.94;10316402;28;20242;-77
2023/08/29 20:26:51;;;;;;;2.80;2.60;;;;;;;17.80;53.94;99191.84;10307557;28;20242;-75
2023/08/29 20:31:53;;;;;;;3.10;2.80;;;;;;;17.23;55.07;99272.00;10315423;28;20241;-77
2023/08/29 20:36:55;;;;;;;3.50;3.20;;;;;;;17.66;54.19;99221.97;10306243;28;20241;-75
2023/08/29 20:42:01;;;;;;;3.20;3.00;;;;;;;18.48;52.20;99179.03;10302723;28;20229;-76
2023/08/29 20:47:04;;;;;;;3.70;3.40;;;;;;;17.70;53.98;99214.19;10315119;28;20687;-76
2023/08/29 20:52:08;;;;;;;3.27;2.97;;;;;;;17.98;53.25;99253.03;10345660;28;20524;-75
2023/08/29 20:57:12;;;;;;;4.50;3.17;;;;;;;18.36;52.13;99230.63;10349832;28;20239;-76
2023/08/29 21:02:14;;;;;;;3.93;3.20;;;;;;;18.32;52.60;99190.75;10346394;28;20233;-74
2023/08/29 21:07:16;;;;;;;3.40;3.10;;;;;;;17.47;53.76;99264.59;10348361;28;20285;-74
2023/08/29 21:12:18;;;;;;;4.80;3.17;;;;;;;18.36;52.40;99159.38;10346961;28;20324;-76
2023/08/29 21:17:21;;;;;;;2.77;2.57;;;;;;;18.44;51.90;99200.41;10341185;28;20323;-76
2023/08/29 21:22:23;;;;;;;3.80;3.20;;;;;;;18.69;51.17;99182.00;10347321;28;20785;-78
2023/08/29 21:27:25;;;;;;;3.10;2.90;;;;;;;18.53;51.32;99229.75;10342429;28;20843;-76
2023/08/29 21:32:26;;;;;;;3.70;3.17;;;;;;;18.02;52.96;99235.25;10333142;28;20230;-76
2023/08/29 21:37:28;;;;;;;3.63;2.90;;;;;;;18.93;50.92;99191.53;10305442;28;20234;-74
2023/08/29 21:42:32;;;;;;;3.47;3.13;;;;;;;19.04;50.28;99208.69;10304900;28;20364;-76
2023/08/29 21:47:33;;;;;;;4.43;3.00;;;;;;;19.10;50.39;99215.84;10317272;28;20237;-76
2023/08/29 21:52:35;;;;;;;3.60;3.30;;;;;;;17.71;53.10;99284.28;10361770;28;20233;-76
2023/08/29 21:57:37;;;;;;;5.20;3.20;;;;;;;18.19;51.88;99235.22;10343298;28;20718;-75
2023/08/29 22:02:38;;;;;;;3.40;3.10;;;;;;;17.97;51.71;99263.06;10349729;28;20518;-75
2023/08/29 22:07:40;;;;;;;3.47;3.17;;;;;;;18.51;50.96;99202.91;10341883;28;20335;-76
2023/08/29 22:12:42;;;;;;;3.07;2.87;;;;;;;17.33;52.93;99280.31;10349189;28;20379;-75
2023/08/29 22:17:44;;;;;;;4.77;3.60;;;;;;;16.83;54.38;99253.06;10352061;28;20287;-78
2023/08/29 22:22:46;;;;;;;4.67;3.30;;;;;;;16.11;55.58;99287.38;10352424;28;20625;-76
2023/08/29 22:27:48;;;;;;;3.33;3.03;;;;;;;16.25;55.19;99267.19;10347222;28;20237;-76
2023/08/29 22:32:51;;;;;;;3.27;3.00;;;;;;;16.23;55.95;99226.13;10339152;28;20280;-75
2023/08/29 22:37:53;;;;;;;4.27;3.23;;;;;;;15.79;56.77;99249.91;10345952;28;20666;-75
2023/08/29 22:42:55;;;;;;;3.87;3.57;;;;;;;15.51;57.49;99250.53;10336778;28;20234;-74
2023/08/29 22:47:57;;;;;;;4.20;3.43;;;;;;;15.96;57.01;99196.09;10347020;28;20296;-74
2023/08/29 22:52:59;;;;;;;4.40;4.00;;;;;;;16.10;56.44;99185.06;10346839;28;20272;-74
2023/08/29 22:58:00;;;;;;;5.90;4.50;;;;;;;15.80;56.88;99212.97;10342544;28;20234;-76
2023/08/29 23:03:04;;;;;;;6.67;4.70;;;;;;;16.41;55.83;99156.88;10342824;28;20307;-75
2023/08/29 23:08:06;;;;;;;6.77;4.77;;;;;;;16.56;55.35;99138.28;10342732;28;20747;-77
2023/08/29 23:13:08;;;;;;;4.87;4.37;;;;;;;15.83;57.04;99213.31;10347442;28;20221;-75
2023/08/29 23:18:10;;;;;;;6.13;4.77;;;;;;;16.60;55.15;99179.97;10344992;28;20316;-76
2023/08/29 23:23:12;;;;;;;5.27;4.77;;;;;;;16.16;55.97;99179.53;10354884;28;20240;-76
2023/08/29 23:28:14;;;;;;;5.03;4.53;;;;;;;16.53;55.02;99181.13;10343447;28;20270;-75
2023/08/29 23:33:22;;;;;;;5.20;4.67;;;;;;;16.46;54.68;99208.28;10344756;28;20605;-75